Time;durP1;ratioP1;P1;durP2;ratioP2;P2;SDS_P1;SDS_P2;PMS_P1;PMS_P2;Temp;Humidity;BMP_temperature;BMP_pressure;BME280_temperature;BME280_humidity;BME280_pressure;Samples;Min_cycle;Max_cycle;Signal;HPM_P1;HPM_P2
2022/01/06 00:00:14;;;;;;;7.97;2.73;;;6.60;99.90;;;;;;5012592;28;20198;-61
2022/01/06 00:02:41;;;;;;;9.83;3.20;;;6.70;99.90;;;;;;5012421;28;20622;-61
2022/01/06 00:05:09;;;;;;;8.20;2.40;;;6.70;99.90;;;;;;5012849;28;20218;-61
2022/01/06 00:07:37;;;;;;;6.40;2.37;;;6.60;99.90;;;;;;5012231;28;20242;-61
2022/01/06 00:10:07;;;;;;;7.83;2.40;;;6.60;99.90;;;;;;5012409;28;20231;-61
2022/01/06 00:12:40;;;;;;;9.63;2.80;;;6.60;99.90;;;;;;5012565;28;20659;-61
2022/01/06 00:15:22;;;;;;;5.97;2.63;;;6.60;99.90;;;;;;5012350;28;20610;-62
2022/01/06 00:18:11;;;;;;;10.10;2.77;;;6.40;99.90;;;;;;5012530;28;20645;-62
2022/01/06 00:23:28;;;;;;;5.67;2.20;;;6.50;99.90;;;;;;5012285;28;20222;-62
2022/01/06 00:25:57;;;;;;;7.33;3.10;;;6.50;99.90;;;;;;5012459;28;20210;-62
2022/01/06 00:28:24;;;;;;;8.70;3.03;;;6.60;99.90;;;;;;5012118;28;20357;-62
2022/01/06 00:30:51;;;;;;;5.77;2.83;;;6.60;99.90;;;;;;5012067;28;20230;-61
2022/01/06 00:33:18;;;;;;;8.53;2.60;;;6.50;99.90;;;;;;5012328;28;20207;-62
2022/01/06 00:35:44;;;;;;;6.53;2.60;;;6.40;99.90;;;;;;5012327;28;20210;-62
2022/01/06 00:38:11;;;;;;;11.93;2.90;;;6.40;99.90;;;;;;5011711;28;20285;-62
2022/01/06 00:40:39;;;;;;;12.93;2.50;;;6.50;99.90;;;;;;5012075;28;20671;-62
2022/01/06 00:43:08;;;;;;;6.23;2.63;;;6.50;99.90;;;;;;5012262;28;20270;-62
2022/01/06 00:45:36;;;;;;;10.37;3.03;;;6.60;99.90;;;;;;5012258;28;20305;-62
2022/01/06 00:48:04;;;;;;;7.33;2.50;;;6.50;99.90;;;;;;5011840;28;20313;-60
2022/01/06 00:50:31;;;;;;;8.70;2.67;;;6.50;99.90;;;;;;5011888;28;20265;-61
2022/01/06 00:53:00;;;;;;;8.33;2.60;;;6.50;99.90;;;;;;5014905;28;20210;-61
2022/01/06 00:55:26;;;;;;;9.50;2.57;;;6.50;99.90;;;;;;5016030;28;20208;-61
2022/01/06 00:57:55;;;;;;;9.07;2.93;;;6.60;99.90;;;;;;5015612;28;20277;-61
2022/01/06 01:00:27;;;;;;;5.87;2.77;;;6.60;99.90;;;;;;5015842;28;20238;-61
2022/01/06 01:02:54;;;;;;;9.90;3.27;;;6.70;99.90;;;;;;5015722;28;20242;-62
2022/01/06 01:05:20;;;;;;;7.10;2.67;;;6.60;99.90;;;;;;5015887;28;20203;-60
2022/01/06 01:07:47;;;;;;;8.73;2.80;;;6.70;99.90;;;;;;5015465;28;20707;-61
2022/01/06 01:10:15;;;;;;;6.63;2.57;;;6.50;99.90;;;;;;5015741;28;20296;-61
2022/01/06 01:12:46;;;;;;;8.07;2.37;;;6.50;99.90;;;;;;5015663;28;20203;-61
2022/01/06 01:15:19;;;;;;;5.97;2.57;;;6.50;99.90;;;;;;5015580;28;20225;-61
2022/01/06 01:17:47;;;;;;;6.53;2.43;;;6.60;99.90;;;;;;5015046;28;20234;-62
2022/01/06 01:20:15;;;;;;;6.13;2.70;;;6.50;99.90;;;;;;5015646;28;20207;-61
2022/01/06 01:22:42;;;;;;;8.70;2.93;;;6.50;99.90;;;;;;5015458;28;20676;-61
2022/01/06 01:25:10;;;;;;;8.03;2.90;;;6.60;99.90;;;;;;5015565;28;20258;-62
2022/01/06 01:27:40;;;;;;;7.17;2.60;;;6.60;99.90;;;;;;5015070;28;20281;-62
2022/01/06 01:30:11;;;;;;;7.33;2.97;;;6.60;99.90;;;;;;5015746;28;20241;-62
2022/01/06 01:32:41;;;;;;;7.90;2.83;;;6.60;99.90;;;;;;5015392;28;20246;-62
2022/01/06 01:35:10;;;;;;;4.37;2.47;;;6.60;99.90;;;;;;5015193;28;20230;-63
2022/01/06 01:37:38;;;;;;;6.73;2.97;;;6.60;99.90;;;;;;5014679;28;20610;-61
2022/01/06 01:40:07;;;;;;;9.00;2.93;;;6.60;99.90;;;;;;5014968;28;20686;-62
2022/01/06 01:42:34;;;;;;;10.03;3.10;;;6.60;99.90;;;;;;5014880;28;20281;-61
2022/01/06 01:45:02;;;;;;;10.13;2.53;;;6.60;99.90;;;;;;5015103;28;20210;-61
2022/01/06 01:47:30;;;;;;;9.73;2.77;;;6.60;99.90;;;;;;5014856;28;20238;-60
2022/01/06 01:50:10;;;;;;;10.03;2.77;;;6.60;99.90;;;;;;5014899;28;20338;-60
2022/01/06 01:52:37;;;;;;;11.00;2.50;;;6.60;99.90;;;;;;5014980;28;20213;-61
2022/01/06 01:55:05;;;;;;;8.20;2.80;;;6.70;99.90;;;;;;5014598;28;20574;-63
2022/01/06 01:57:32;;;;;;;7.10;2.53;;;6.60;99.90;;;;;;5014639;28;20238;-61
2022/01/06 02:00:00;;;;;;;7.53;2.80;;;6.60;99.90;;;;;;5014795;28;20207;-60
2022/01/06 02:02:28;;;;;;;9.10;2.63;;;6.60;99.90;;;;;;5014728;28;20231;-60
2022/01/06 02:04:54;;;;;;;7.43;3.00;;;6.60;99.90;;;;;;5013763;28;20206;-62
2022/01/06 02:07:22;;;;;;;8.63;2.60;;;6.70;99.90;;;;;;5014205;28;20235;-62
2022/01/06 02:09:49;;;;;;;7.43;2.40;;;6.70;99.90;;;;;;5014426;28;20203;-62
2022/01/06 02:12:23;;;;;;;7.77;3.07;;;6.70;99.90;;;;;;5014654;28;20265;-60
2022/01/06 02:14:50;;;;;;;7.17;2.70;;;6.60;99.90;;;;;;5014532;28;20229;-61
2022/01/06 02:17:17;;;;;;;7.40;2.37;;;6.70;99.90;;;;;;5014049;28;20247;-61
2022/01/06 02:19:52;;;;;;;7.73;2.67;;;6.60;99.90;;;;;;5014208;28;20737;-61
2022/01/06 02:22:19;;;;;;;7.83;2.50;;;6.70;99.90;;;;;;5014207;28;20293;-61
2022/01/06 02:24:46;;;;;;;8.10;2.40;;;6.60;99.90;;;;;;5014353;28;20218;-61
2022/01/06 02:27:12;;;;;;;9.90;2.73;;;6.60;99.90;;;;;;5013982;28;20227;-63
2022/01/06 02:29:39;;;;;;;7.17;3.07;;;6.60;99.90;;;;;;5014111;28;20237;-60
2022/01/06 02:32:08;;;;;;;9.20;2.70;;;6.70;99.90;;;;;;5014039;28;20238;-61
2022/01/06 02:34:35;;;;;;;7.63;3.13;;;6.60;99.90;;;;;;5014356;28;20687;-61
2022/01/06 02:37:04;;;;;;;7.83;2.63;;;6.60;99.90;;;;;;5013997;28;20648;-60
2022/01/06 02:39:31;;;;;;;7.00;2.60;;;6.60;99.90;;;;;;5014643;28;20290;-62
2022/01/06 02:41:57;;;;;;;7.20;2.60;;;6.70;99.90;;;;;;5014543;28;20589;-61
2022/01/06 02:44:25;;;;;;;5.40;2.77;;;6.60;99.90;;;;;;5014090;28;20261;-62
2022/01/06 02:46:53;;;;;;;8.13;2.53;;;6.70;99.90;;;;;;5013712;28;20778;-62
2022/01/06 02:49:20;;;;;;;7.67;2.87;;;6.80;99.90;;;;;;5013785;28;20214;-61
2022/01/06 02:51:47;;;;;;;7.23;2.30;;;6.80;99.90;;;;;;5013866;28;20231;-61
2022/01/06 02:54:15;;;;;;;5.63;2.40;;;6.80;99.90;;;;;;5013838;28;20211;-61
2022/01/06 02:56:43;;;;;;;7.20;2.40;;;6.80;99.90;;;;;;5013434;28;20257;-61
2022/01/06 02:59:10;;;;;;;7.43;2.30;;;6.80;99.90;;;;;;5013652;28;20211;-61
2022/01/06 03:01:40;;;;;;;5.50;2.93;;;6.80;99.90;;;;;;5013841;28;20253;-61
2022/01/06 03:04:07;;;;;;;7.27;2.50;;;6.80;99.90;;;;;;5013451;28;20671;-61
2022/01/06 03:06:34;;;;;;;7.17;2.40;;;6.70;99.90;;;;;;5013298;28;20638;-61
2022/01/06 03:09:01;;;;;;;8.93;3.47;;;6.80;99.90;;;;;;5013701;28;20210;-61
2022/01/06 03:11:30;;;;;;;6.23;2.63;;;6.80;99.90;;;;;;5013377;28;20227;-61
2022/01/06 03:13:57;;;;;;;8.70;2.70;;;6.80;99.90;;;;;;5013194;28;20210;-61
2022/01/06 03:16:24;;;;;;;8.37;2.50;;;6.80;99.90;;;;;;5012947;28;20209;-60
2022/01/06 03:18:50;;;;;;;6.57;2.53;;;6.80;99.90;;;;;;5013030;28;20231;-60
2022/01/06 03:21:17;;;;;;;5.43;2.03;;;6.80;99.90;;;;;;5013235;28;20226;-61
2022/01/06 03:23:44;;;;;;;7.17;2.63;;;6.90;99.90;;;;;;5013247;28;20628;-60
2022/01/06 03:26:11;;;;;;;9.13;3.23;;;6.90;99.90;;;;;;5013167;28;20207;-61
2022/01/06 03:28:39;;;;;;;7.00;2.97;;;6.90;99.90;;;;;;5012748;28;20641;-62
2022/01/06 03:31:06;;;;;;;6.83;2.63;;;6.90;99.90;;;;;;5012884;28;20227;-62
2022/01/06 03:33:32;;;;;;;10.03;2.97;;;6.90;99.90;;;;;;5013217;28;20211;-61
2022/01/06 03:35:59;;;;;;;6.37;2.07;;;6.90;99.90;;;;;;5013115;28;20277;-60
2022/01/06 03:38:26;;;;;;;7.93;2.40;;;6.90;99.90;;;;;;5012722;28;20227;-61
2022/01/06 03:40:52;;;;;;;9.23;2.90;;;6.80;99.90;;;;;;5012892;28;20203;-62
2022/01/06 03:43:19;;;;;;;7.70;2.90;;;6.70;99.90;;;;;;5012839;28;20203;-60
2022/01/06 03:45:47;;;;;;;5.47;2.60;;;6.70;99.90;;;;;;5013026;28;20217;-62
2022/01/06 03:48:14;;;;;;;7.37;3.20;;;6.80;99.90;;;;;;5012447;28;20623;-62
2022/01/06 03:50:41;;;;;;;7.83;2.97;;;6.80;99.90;;;;;;5012735;28;20211;-62
2022/01/06 03:53:08;;;;;;;7.97;2.70;;;6.80;99.90;;;;;;5012736;28;20301;-61
2022/01/06 03:55:36;;;;;;;6.07;2.57;;;6.80;99.90;;;;;;5012673;28;20214;-61
2022/01/06 03:58:05;;;;;;;6.20;2.50;;;6.70;99.90;;;;;;5012227;28;20337;-61
2022/01/06 04:00:32;;;;;;;7.63;2.63;;;6.60;99.90;;;;;;5012861;28;20203;-61
2022/01/06 04:03:00;;;;;;;5.30;2.50;;;6.60;99.90;;;;;;5012680;28;20260;-62
2022/01/06 04:05:27;;;;;;;7.00;2.40;;;6.50;99.90;;;;;;5012663;28;20236;-62
2022/01/06 04:07:54;;;;;;;8.00;2.53;;;6.50;99.90;;;;;;5012606;28;20248;-63
2022/01/06 04:10:20;;;;;;;7.07;2.77;;;6.60;99.90;;;;;;5012479;28;20211;-61
2022/01/06 04:12:47;;;;;;;5.80;2.47;;;6.70;99.90;;;;;;5012276;28;20238;-61
2022/01/06 04:15:14;;;;;;;7.17;2.53;;;6.60;99.90;;;;;;5012697;28;20210;-61
2022/01/06 04:17:42;;;;;;;5.07;2.57;;;6.60;99.90;;;;;;5012094;28;20245;-61
2022/01/06 04:20:13;;;;;;;8.37;2.50;;;6.60;99.90;;;;;;5012359;28;20207;-62
2022/01/06 04:22:40;;;;;;;7.37;2.60;;;6.60;99.90;;;;;;5012477;28;20666;-62
2022/01/06 04:25:07;;;;;;;5.83;2.90;;;6.50;99.90;;;;;;5012149;28;20214;-61
2022/01/06 04:27:34;;;;;;;5.10;2.73;;;6.50;99.90;;;;;;5011664;28;20289;-61
2022/01/06 04:30:02;;;;;;;7.80;2.60;;;6.50;99.90;;;;;;5012206;28;20706;-60
2022/01/06 04:32:28;;;;;;;6.60;2.97;;;6.60;99.90;;;;;;5012253;28;20663;-61
2022/01/06 04:34:55;;;;;;;3.77;2.40;;;6.60;99.90;;;;;;5012456;28;20276;-63
2022/01/06 04:37:24;;;;;;;8.63;2.73;;;6.60;99.90;;;;;;5011887;28;20262;-62
2022/01/06 04:39:51;;;;;;;7.53;2.40;;;6.60;99.90;;;;;;5012134;28;20209;-61
2022/01/06 04:42:18;;;;;;;6.97;2.83;;;6.60;99.90;;;;;;5012357;28;20281;-61
2022/01/06 04:44:45;;;;;;;8.77;3.10;;;6.60;99.90;;;;;;5012730;28;20214;-61
2022/01/06 04:47:11;;;;;;;5.77;3.20;;;6.60;99.90;;;;;;5011677;28;20231;-61
2022/01/06 04:49:38;;;;;;;6.97;2.67;;;6.60;99.90;;;;;;5012090;28;20211;-61
2022/01/06 04:52:05;;;;;;;5.17;2.90;;;6.50;99.90;;;;;;5011885;28;20235;-61
2022/01/06 04:54:33;;;;;;;5.80;2.83;;;6.50;99.90;;;;;;5011871;28;20211;-61
2022/01/06 04:57:00;;;;;;;6.90;3.40;;;6.40;99.90;;;;;;5011631;28;20227;-63
2022/01/06 04:59:27;;;;;;;9.10;3.20;;;6.40;99.90;;;;;;5012038;28;20269;-62
2022/01/06 05:01:54;;;;;;;7.13;3.10;;;6.30;99.90;;;;;;5012390;28;20326;-60
2022/01/06 05:04:20;;;;;;;6.77;3.13;;;6.30;99.90;;;;;;5011987;28;20264;-61
2022/01/06 05:06:47;;;;;;;7.93;2.63;;;6.20;99.90;;;;;;5011480;28;20206;-61
2022/01/06 05:09:15;;;;;;;9.27;2.97;;;6.20;99.90;;;;;;5011811;28;20302;-61
2022/01/06 05:11:43;;;;;;;5.17;3.00;;;6.00;99.90;;;;;;5011971;28;20223;-61
2022/01/06 05:14:09;;;;;;;7.50;2.87;;;6.00;99.90;;;;;;5011896;28;20211;-61
2022/01/06 05:16:36;;;;;;;5.93;2.70;;;6.00;99.90;;;;;;5011618;28;20210;-60
2022/01/06 05:19:03;;;;;;;4.70;3.13;;;6.00;99.90;;;;;;5011621;28;20222;-62
2022/01/06 05:21:31;;;;;;;7.30;3.20;;;6.10;99.90;;;;;;5012041;28;20254;-61
2022/01/06 05:23:58;;;;;;;5.23;2.87;;;6.10;99.90;;;;;;5011733;28;20642;-60
2022/01/06 05:26:25;;;;;;;10.33;3.33;;;6.10;99.90;;;;;;5011641;28;20706;-61
2022/01/06 05:28:53;;;;;;;6.80;2.90;;;6.10;99.90;;;;;;5011494;28;20305;-60
2022/01/06 05:31:20;;;;;;;7.77;3.27;;;6.20;99.90;;;;;;5011612;28;20218;-61
2022/01/06 05:33:47;;;;;;;6.50;2.90;;;6.30;99.90;;;;;;5011625;28;20211;-61
2022/01/06 05:36:13;;;;;;;10.10;3.30;;;6.40;99.90;;;;;;5011510;28;20207;-61
2022/01/06 05:38:40;;;;;;;8.27;2.90;;;6.40;99.90;;;;;;5011938;28;20575;-61
2022/01/06 05:41:07;;;;;;;8.20;2.57;;;6.40;99.90;;;;;;5015096;28;20717;-61
2022/01/06 05:43:33;;;;;;;7.90;2.90;;;6.50;99.90;;;;;;5015032;28;20216;-61
2022/01/06 05:46:01;;;;;;;9.57;3.23;;;6.50;99.90;;;;;;5015402;28;20214;-61
2022/01/06 05:48:28;;;;;;;11.47;3.70;;;6.50;99.90;;;;;;5014579;28;20230;-61
2022/01/06 05:50:55;;;;;;;5.47;2.87;;;6.50;99.90;;;;;;5015144;28;20234;-61
2022/01/06 05:53:21;;;;;;;5.93;3.00;;;6.40;99.90;;;;;;5014895;28;20227;-62
2022/01/06 05:55:48;;;;;;;8.47;3.33;;;6.30;99.90;;;;;;5014840;28;20214;-60
2022/01/06 05:58:15;;;;;;;8.23;3.30;;;6.30;99.90;;;;;;5014518;28;20227;-61
2022/01/06 06:00:42;;;;;;;7.30;2.80;;;6.30;99.90;;;;;;5014740;28;20206;-61
2022/01/06 06:03:10;;;;;;;6.57;3.00;;;6.40;99.90;;;;;;5014652;28;20199;-60
2022/01/06 06:05:37;;;;;;;8.17;2.83;;;6.40;99.90;;;;;;5014534;28;20725;-61
2022/01/06 06:08:04;;;;;;;8.00;3.00;;;6.40;99.90;;;;;;5014413;28;20317;-61
2022/01/06 06:10:31;;;;;;;7.60;3.30;;;6.50;99.90;;;;;;5014725;28;20240;-61
2022/01/06 06:12:57;;;;;;;9.63;3.27;;;6.50;99.90;;;;;;5014355;28;20219;-61
2022/01/06 06:15:24;;;;;;;9.07;3.50;;;6.50;99.90;;;;;;5014440;28;20211;-61
2022/01/06 06:17:51;;;;;;;8.97;2.73;;;6.50;99.90;;;;;;5014834;28;20286;-61
2022/01/06 06:20:19;;;;;;;4.93;2.57;;;6.50;99.90;;;;;;5014264;28;20633;-61
2022/01/06 06:22:45;;;;;;;6.00;2.63;;;6.50;99.90;;;;;;5014200;28;20671;-61
2022/01/06 06:25:12;;;;;;;7.37;3.07;;;6.60;99.90;;;;;;5014358;28;20207;-61
2022/01/06 06:27:39;;;;;;;7.20;3.20;;;6.60;99.90;;;;;;5013944;28;20773;-61
2022/01/06 06:30:07;;;;;;;7.33;2.60;;;6.60;99.90;;;;;;5014078;28;20238;-61
2022/01/06 06:32:35;;;;;;;7.90;3.10;;;6.70;99.90;;;;;;5014308;28;20230;-62
2022/01/06 06:35:02;;;;;;;8.70;2.83;;;6.80;99.90;;;;;;5014257;28;20218;-61
2022/01/06 06:37:30;;;;;;;5.50;2.93;;;6.80;99.90;;;;;;5013826;28;20227;-61
2022/01/06 06:39:57;;;;;;;4.83;2.40;;;6.70;99.90;;;;;;5014094;28;20206;-61
2022/01/06 06:42:24;;;;;;;9.07;3.17;;;6.70;99.90;;;;;;5014064;28;20302;-60
2022/01/06 06:44:51;;;;;;;6.83;2.60;;;6.60;99.90;;;;;;5013835;28;20210;-61
2022/01/06 06:47:18;;;;;;;6.60;2.50;;;6.50;99.90;;;;;;5013747;28;20231;-61
2022/01/06 06:49:45;;;;;;;9.93;2.97;;;6.40;99.90;;;;;;5013448;28;20268;-60
2022/01/06 06:52:12;;;;;;;7.80;3.00;;;6.40;99.90;;;;;;5014052;28;20219;-61
2022/01/06 06:54:40;;;;;;;4.60;2.50;;;6.40;99.90;;;;;;5013701;28;20655;-61
2022/01/06 06:57:07;;;;;;;5.83;2.73;;;6.40;99.90;;;;;;5013325;28;20234;-61
2022/01/06 06:59:33;;;;;;;9.73;3.33;;;6.40;99.90;;;;;;5013585;28;20211;-61
2022/01/06 07:02:00;;;;;;;7.80;4.00;;;6.30;99.90;;;;;;5013914;28;20261;-61
2022/01/06 07:04:27;;;;;;;10.00;3.93;;;6.20;99.90;;;;;;5013703;28;20218;-61
2022/01/06 07:06:53;;;;;;;9.67;3.17;;;6.10;99.90;;;;;;5013259;28;20223;-61
2022/01/06 07:09:20;;;;;;;10.40;3.30;;;6.00;99.90;;;;;;5013466;28;20257;-61
2022/01/06 07:11:48;;;;;;;8.73;3.67;;;5.90;99.90;;;;;;5013261;28;20210;-61
2022/01/06 07:14:15;;;;;;;7.27;2.90;;;5.90;99.90;;;;;;5013641;28;20206;-61
2022/01/06 07:16:41;;;;;;;7.73;3.07;;;5.90;99.90;;;;;;5013329;28;20273;-61
2022/01/06 07:19:08;;;;;;;7.13;2.90;;;5.90;99.90;;;;;;5013247;28;20230;-62
2022/01/06 07:21:35;;;;;;;10.63;3.80;;;5.90;99.90;;;;;;5013301;28;20210;-62
2022/01/06 07:24:01;;;;;;;11.33;3.33;;;5.80;99.90;;;;;;5013426;28;20579;-62
2022/01/06 07:26:28;;;;;;;10.57;3.50;;;5.70;99.90;;;;;;5013096;28;20211;-60
2022/01/06 07:28:56;;;;;;;10.57;3.80;;;5.50;99.90;;;;;;5013394;28;20231;-60
2022/01/06 07:31:23;;;;;;;10.50;4.13;;;5.40;99.90;;;;;;5013382;28;20211;-60
2022/01/06 07:33:50;;;;;;;8.63;3.70;;;5.30;99.90;;;;;;5013368;28;20227;-60
2022/01/06 07:36:16;;;;;;;8.23;3.40;;;5.20;99.90;;;;;;5013110;28;20214;-61
2022/01/06 07:38:43;;;;;;;8.83;4.23;;;5.20;99.90;;;;;;5012724;28;20231;-59
2022/01/06 07:41:10;;;;;;;5.60;3.70;;;5.10;99.90;;;;;;5013200;28;20207;-60
2022/01/06 07:43:36;;;;;;;9.47;4.00;;;5.00;99.90;;;;;;5013373;28;20198;-62
2022/01/06 07:46:06;;;;;;;12.53;5.67;;;4.90;99.90;;;;;;5013459;28;20666;-60
2022/01/06 07:48:48;;;;;;;16.37;7.87;;;4.80;99.90;;;;;;5013060;28;20238;-60
2022/01/06 07:51:15;;;;;;;9.77;4.03;;;4.80;99.90;;;;;;5013276;28;20210;-60
2022/01/06 07:53:42;;;;;;;9.63;4.43;;;4.70;99.90;;;;;;5013327;28;20289;-59
2022/01/06 07:56:08;;;;;;;10.57;4.43;;;4.70;99.90;;;;;;5013604;28;20265;-59
2022/01/06 07:58:35;;;;;;;11.00;5.70;;;4.70;99.90;;;;;;5012773;28;20227;-61
2022/01/06 08:01:02;;;;;;;10.03;4.23;;;4.70;99.90;;;;;;5012609;28;20211;-64
2022/01/06 08:03:30;;;;;;;11.27;3.63;;;4.80;99.90;;;;;;5012981;28;20261;-62
2022/01/06 08:05:57;;;;;;;13.40;4.10;;;4.90;99.90;;;;;;5013446;28;20265;-63
2022/01/06 08:08:23;;;;;;;12.33;5.57;;;5.10;99.90;;;;;;5017026;28;20694;-61
2022/01/06 08:10:51;;;;;;;11.83;6.50;;;5.30;99.90;;;;;;5033911;28;20644;-63
2022/01/06 08:13:17;;;;;;;11.63;4.63;;;5.50;99.90;;;;;;5034067;28;20237;-62
2022/01/06 08:15:44;;;;;;;12.67;5.00;;;5.70;99.90;;;;;;5028346;28;20668;-62
2022/01/06 08:18:11;;;;;;;26.67;12.27;;;5.80;99.90;;;;;;5015491;28;20273;-63
2022/01/06 08:20:39;;;;;;;13.17;7.37;;;5.90;99.90;;;;;;5014457;28;20211;-62
2022/01/06 08:23:06;;;;;;;7.40;3.63;;;6.00;99.90;;;;;;5013973;28;20298;-63
2022/01/06 08:25:33;;;;;;;10.10;4.57;;;6.10;99.90;;;;;;5013403;28;20632;-63
2022/01/06 08:28:00;;;;;;;9.33;3.93;;;6.20;99.90;;;;;;5012790;28;20284;-62
2022/01/06 08:30:27;;;;;;;7.87;3.83;;;6.30;99.90;;;;;;5012834;28;20206;-62
2022/01/06 08:32:55;;;;;;;9.40;3.87;;;6.40;99.90;;;;;;5013212;28;20297;-67
2022/01/06 08:35:21;;;;;;;10.20;4.33;;;6.50;99.90;;;;;;5012604;28;20293;-65
2022/01/06 08:37:50;;;;;;;9.60;4.03;;;6.60;99.90;;;;;;5012093;28;20230;-61
2022/01/06 08:40:16;;;;;;;11.57;4.73;;;6.70;99.90;;;;;;5012292;28;20261;-60
2022/01/06 08:42:44;;;;;;;7.80;4.40;;;6.70;99.90;;;;;;5012433;28;20206;-64
2022/01/06 08:45:11;;;;;;;10.83;4.23;;;6.80;99.90;;;;;;5012458;28;20280;-61
2022/01/06 08:47:38;;;;;;;11.13;5.13;;;6.70;99.90;;;;;;5011710;28;20281;-61
2022/01/06 08:50:05;;;;;;;14.37;4.07;;;6.70;99.90;;;;;;5012607;28;20269;-62
2022/01/06 08:52:34;;;;;;;7.67;3.80;;;6.70;99.90;;;;;;5012936;28;20223;-61
2022/01/06 08:55:02;;;;;;;14.90;8.33;;;6.80;99.90;;;;;;5012741;28;20218;-62
2022/01/06 08:57:29;;;;;;;10.50;4.83;;;7.00;99.90;;;;;;5011904;28;20239;-62
2022/01/06 08:59:55;;;;;;;11.17;5.83;;;7.30;99.90;;;;;;5012405;28;20207;-61
2022/01/06 09:02:22;;;;;;;11.73;4.60;;;7.50;99.90;;;;;;5012494;28;20207;-61
2022/01/06 09:04:48;;;;;;;8.70;3.80;;;7.60;99.90;;;;;;5012736;28;20218;-64
2022/01/06 09:07:15;;;;;;;9.30;4.27;;;7.70;99.90;;;;;;5011736;28;20277;-65
2022/01/06 09:09:42;;;;;;;11.40;5.13;;;7.80;99.90;;;;;;5012021;28;20241;-61
2022/01/06 09:12:16;;;;;;;11.80;5.07;;;7.90;99.90;;;;;;5011973;28;20219;-61
2022/01/06 09:14:43;;;;;;;11.00;4.53;;;8.10;99.90;;;;;;5015500;28;20249;-61
2022/01/06 09:17:10;;;;;;;8.87;3.83;;;8.30;99.90;;;;;;5014936;28;20231;-61
2022/01/06 09:19:36;;;;;;;55.40;36.17;;;8.30;99.90;;;;;;5015562;28;20636;-62
2022/01/06 09:22:04;;;;;;;9.67;5.20;;;8.10;99.90;;;;;;5015612;28;20210;-62
2022/01/06 09:24:31;;;;;;;10.60;4.73;;;8.00;99.90;;;;;;5015536;28;20203;-62
2022/01/06 09:26:57;;;;;;;13.47;3.50;;;8.20;99.90;;;;;;5015388;28;20235;-61
2022/01/06 09:29:25;;;;;;;7.90;3.90;;;8.00;99.90;;;;;;5015013;28;20633;-60
2022/01/06 09:31:52;;;;;;;5.37;3.30;;;7.80;99.90;;;;;;5015475;28;20206;-62
2022/01/06 09:34:19;;;;;;;8.33;3.47;;;8.00;99.90;;;;;;5015257;28;20293;-63
2022/01/06 09:36:45;;;;;;;8.80;4.37;;;8.20;99.90;;;;;;5014994;28;20675;-62
2022/01/06 09:39:13;;;;;;;12.43;4.43;;;8.30;99.90;;;;;;5014968;28;20203;-62
2022/01/06 09:41:39;;;;;;;9.50;4.07;;;8.40;99.90;;;;;;5015150;28;20737;-61
2022/01/06 09:44:08;;;;;;;11.47;3.87;;;8.40;99.90;;;;;;5014879;28;20670;-62
2022/01/06 09:46:36;;;;;;;9.83;4.03;;;8.30;99.90;;;;;;5015135;28;20215;-62
2022/01/06 09:49:03;;;;;;;6.53;3.37;;;8.00;99.90;;;;;;5014764;28;20210;-60
2022/01/06 09:51:30;;;;;;;8.47;3.90;;;7.80;99.90;;;;;;5014850;28;20691;-60
2022/01/06 09:54:00;;;;;;;8.17;3.70;;;7.50;99.90;;;;;;5014835;28;20225;-60
2022/01/06 09:56:27;;;;;;;8.13;4.47;;;7.50;99.90;;;;;;5014652;28;20218;-60
2022/01/06 09:58:54;;;;;;;8.33;3.70;;;7.50;99.90;;;;;;5014599;28;20254;-60
2022/01/06 10:01:21;;;;;;;8.67;4.20;;;7.70;99.90;;;;;;5014711;28;20690;-60
2022/01/06 10:03:50;;;;;;;8.20;3.77;;;7.70;99.90;;;;;;5014782;28;20208;-60
2022/01/06 10:06:19;;;;;;;8.83;3.83;;;7.90;99.90;;;;;;5014755;28;20675;-60
2022/01/06 10:08:52;;;;;;;9.57;4.17;;;7.90;99.90;;;;;;5014256;28;20234;-61
2022/01/06 10:11:20;;;;;;;7.17;3.50;;;8.10;99.90;;;;;;5014786;28;20578;-61
2022/01/06 10:13:56;;;;;;;10.57;3.77;;;8.30;99.90;;;;;;5014512;28;20578;-61
2022/01/06 10:16:23;;;;;;;7.03;3.47;;;8.20;99.90;;;;;;5014498;28;20749;-60
2022/01/06 10:19:04;;;;;;;8.90;3.60;;;8.10;99.90;;;;;;5013994;28;20247;-60
2022/01/06 10:21:35;;;;;;;11.73;3.93;;;8.10;99.90;;;;;;5014314;28;20605;-61
2022/01/06 10:24:07;;;;;;;10.87;3.90;;;8.30;99.90;;;;;;5014060;28;20206;-61
2022/01/06 10:26:34;;;;;;;12.63;4.00;;;8.50;99.90;;;;;;5013862;28;20675;-60
2022/01/06 10:29:01;;;;;;;7.30;2.93;;;8.80;99.90;;;;;;5013831;28;20258;-61
2022/01/06 10:31:30;;;;;;;7.93;3.00;;;8.90;99.90;;;;;;5014537;28;20659;-60
2022/01/06 10:33:57;;;;;;;10.45;4.15;;;8.90;99.90;;;;;;5010122;28;20808;-63
2022/01/06 10:36:31;;;;;;;7.30;3.60;;;9.10;99.90;;;;;;5012905;28;20626;-71
2022/01/06 10:39:00;;;;;;;7.53;3.70;;;9.20;99.90;;;;;;5013713;28;20257;-66
2022/01/06 10:41:28;;;;;;;10.10;3.10;;;9.20;99.90;;;;;;5013834;28;20302;-67
2022/01/06 10:43:57;;;;;;;8.10;3.80;;;9.40;99.90;;;;;;5013402;28;20210;-66
2022/01/06 10:46:31;;;;;;;7.10;3.23;;;9.60;99.90;;;;;;5013426;28;20215;-66
2022/01/06 10:49:00;;;;;;;18.37;11.67;;;9.80;99.90;;;;;;5013558;28;20238;-66
2022/01/06 10:51:40;;;;;;;5.70;2.77;;;9.80;99.90;;;;;;5013708;28;20210;-67
2022/01/06 10:54:12;;;;;;;8.17;3.03;;;9.70;99.90;;;;;;5013591;28;20645;-67
2022/01/06 10:56:40;;;;;;;7.50;2.80;;;9.60;99.90;;;;;;5013335;28;20210;-69
2022/01/06 10:59:06;;;;;;;8.00;3.10;;;9.60;99.90;;;;;;5013207;28;20210;-67
2022/01/06 11:01:35;;;;;;;6.67;2.70;;;9.60;99.90;;;;;;5013632;28;20207;-67
2022/01/06 11:04:02;;;;;;;10.13;2.87;;;9.60;99.90;;;;;;5013384;28;20238;-66
2022/01/06 11:06:30;;;;;;;8.43;3.07;;;9.50;99.90;;;;;;5013658;28;20220;-67
2022/01/06 11:08:59;;;;;;;9.00;3.07;;;9.30;99.90;;;;;;5013117;28;20634;-66
2022/01/06 11:11:32;;;;;;;9.57;3.80;;;9.10;99.90;;;;;;5013562;28;20207;-72
2022/01/06 11:13:59;;;;;;;7.33;2.47;;;8.70;99.90;;;;;;5013145;28;20226;-68
2022/01/06 11:16:25;;;;;;;7.43;2.50;;;8.10;99.90;;;;;;5013485;28;20391;-68
2022/01/06 11:18:54;;;;;;;9.10;2.50;;;7.60;99.90;;;;;;5013179;28;20292;-68
2022/01/06 11:21:24;;;;;;;7.73;2.80;;;7.20;99.90;;;;;;5013579;28;20671;-68
2022/01/06 11:24:03;;;;;;;7.87;2.30;;;6.90;99.90;;;;;;5013591;28;20222;-68
2022/01/06 11:26:29;;;;;;;7.57;3.13;;;6.60;99.90;;;;;;5013510;28;20203;-63
2022/01/06 11:28:59;;;;;;;8.67;2.57;;;6.40;99.90;;;;;;5013568;28;20261;-62
2022/01/06 11:31:28;;;;;;;9.60;2.83;;;6.50;99.90;;;;;;5013257;28;20261;-63
2022/01/06 11:33:57;;;;;;;33.90;20.57;;;6.60;99.90;;;;;;5013286;28;20265;-62
2022/01/06 11:36:26;;;;;;;8.90;3.17;;;6.50;99.90;;;;;;5013307;28;20298;-63
2022/01/06 11:38:54;;;;;;;8.53;2.30;;;6.50;99.90;;;;;;5013297;28;20230;-62
2022/01/06 11:41:26;;;;;;;9.10;3.00;;;6.50;99.90;;;;;;5013979;28;20305;-63
2022/01/06 11:43:57;;;;;;;9.50;2.83;;;6.70;99.90;;;;;;5012854;28;20659;-62
2022/01/06 11:46:24;;;;;;;6.77;2.23;;;6.80;99.90;;;;;;5013003;28;20246;-62
2022/01/06 11:48:55;;;;;;;6.67;2.30;;;7.00;99.90;;;;;;5012310;28;20234;-60
2022/01/06 11:51:26;;;;;;;10.83;3.23;;;7.30;99.90;;;;;;5013113;28;20207;-60
2022/01/06 11:53:53;;;;;;;6.03;2.37;;;7.30;99.90;;;;;;5012892;28;20227;-61
2022/01/06 11:56:21;;;;;;;6.50;2.17;;;7.40;99.90;;;;;;5012434;28;20206;-61
2022/01/06 11:58:59;;;;;;;9.67;3.00;;;7.50;99.90;;;;;;5012227;28;20234;-61
2022/01/06 12:01:26;;;;;;;7.37;2.63;;;7.70;99.90;;;;;;5012638;28;20260;-61
2022/01/06 12:03:54;;;;;;;8.20;2.20;;;7.80;99.90;;;;;;5012763;28;20210;-63
2022/01/06 12:06:28;;;;;;;7.27;2.40;;;8.00;99.90;;;;;;5012730;28;20500;-61
2022/01/06 12:08:56;;;;;;;5.97;2.20;;;7.90;99.90;;;;;;5012252;28;20226;-59
2022/01/06 12:11:25;;;;;;;8.13;2.10;;;7.70;99.90;;;;;;5012321;28;20257;-61
2022/01/06 12:13:53;;;;;;;11.87;2.70;;;7.70;99.90;;;;;;5012551;28;20317;-61
2022/01/06 12:16:30;;;;;;;5.83;2.00;;;7.90;99.90;;;;;;5012651;28;20237;-61
2022/01/06 12:18:58;;;;;;;13.33;6.27;;;8.10;99.90;;;;;;5012706;28;20214;-61
2022/01/06 12:21:25;;;;;;;5.80;2.37;;;8.40;99.90;;;;;;5012686;28;20203;-61
2022/01/06 12:24:01;;;;;;;4.77;2.20;;;8.60;99.90;;;;;;5012602;28;20217;-61
2022/01/06 12:26:28;;;;;;;7.83;2.63;;;8.60;99.90;;;;;;5012478;28;20650;-63
2022/01/06 12:28:54;;;;;;;9.30;2.30;;;8.80;99.90;;;;;;5012338;28;20227;-62
2022/01/06 12:31:23;;;;;;;6.80;2.50;;;9.00;99.90;;;;;;5012624;28;20218;-62
2022/01/06 12:33:53;;;;;;;8.17;2.57;;;9.10;99.90;;;;;;5012273;28;20625;-62
2022/01/06 12:36:22;;;;;;;6.00;2.30;;;9.20;99.90;;;;;;5012454;28;20206;-63
2022/01/06 12:38:49;;;;;;;7.47;3.17;;;9.20;99.90;;;;;;5012269;28;20235;-61
2022/01/06 12:41:17;;;;;;;11.80;3.83;;;9.20;99.90;;;;;;5012422;28;20753;-61
2022/01/06 12:43:44;;;;;;;9.83;2.93;;;9.30;99.90;;;;;;5012280;28;20226;-61
2022/01/06 12:46:14;;;;;;;11.13;3.80;;;9.50;99.90;;;;;;5012240;28;20215;-62
2022/01/06 12:48:44;;;;;;;6.03;2.20;;;9.80;99.90;;;;;;5014221;28;20276;-62
2022/01/06 12:51:13;;;;;;;7.60;2.03;;;9.90;99.90;;;;;;5016354;28;20257;-63
2022/01/06 12:53:42;;;;;;;7.97;2.73;;;9.70;99.90;;;;;;5016092;28;20234;-62
2022/01/06 12:56:10;;;;;;;7.03;3.10;;;9.40;99.90;;;;;;5016188;28;20576;-62
2022/01/06 12:58:39;;;;;;;6.97;2.30;;;9.30;99.90;;;;;;5016039;28;20249;-61
2022/01/06 13:01:07;;;;;;;7.53;2.50;;;9.00;99.90;;;;;;5016239;28;20306;-61